Latest Weather Observations for Bellambi

IDN60801

Issued at 4:42 pm EDT Wednesday 21 November 2018 (issued every 10 minutes, with the page automatically refreshed every 10 minutes)

About weather observations | Map of weather stations | Latest weather observations for NSW | Other Formats
Station Details ID: 068228 Name: BELLAMBI AWS Lat: -34.37 Lon: 150.93 Height: 10.0 m
Data from the previous 72 hours. | See also: Recent months at Bellambi
Date/Time
EDT
Temp
°C
App
Temp
°C
Dew
Point
°C
Rel
Hum
%
Delta-T
°C
Wind Press
QNH
hPa
Press
MSL
hPa
Rain since
9am
mm
Dir  Spd
km/h
Gust
km/h
Spd
kts
Gust
kts
21/04:30pm 21.4 19.8 16.6 74 2.9 W 20 33 11 18 - - 1.4
21/04:00pm 23.5 22.7 17.9 71 3.5 SW 19 30 10 16 - - 0.2
21/03:30pm 22.3 22.8 17.4 74 3.0 N 11 13 6 7 - - 0.0
21/03:00pm 21.1 21.8 17.1 78 2.4 N 9 13 5 7 - - 0.0
21/02:30pm 21.9 22.1 17.7 77 2.6 NNE 13 19 7 10 - - 0.0
21/02:00pm 21.6 22.0 17.2 76 2.7 N 11 17 6 9 - - 0.0
21/01:30pm 21.7 22.8 17.9 79 2.4 N 9 19 5 10 - - 0.0
21/01:00pm 21.5 19.5 17.3 77 2.6 ENE 24 26 13 14 - - 0.0
21/12:30pm 21.9 20.6 17.3 75 2.8 ENE 20 22 11 12 - - 0.0
21/12:00pm 22.7 21.7 17.6 73 3.2 ENE 19 20 10 11 - - 0.0
21/11:30am 22.6 21.9 17.3 72 3.3 ENE 17 20 9 11 - - 0.0
21/11:00am 23.3 22.6 17.3 69 3.7 NE 17 20 9 11 - - 0.0
21/10:30am 23.2 22.1 17.2 69 3.7 NNE 19 22 10 12 - - 0.0
21/10:00am 23.0 22.3 16.5 67 4.0 NNE 15 20 8 11 - - 0.0
21/09:30am 23.0 22.3 16.3 66 4.1 N 15 19 8 10 - - 0.0
21/09:00am 23.6 21.8 15.9 62 4.7 NNW 20 30 11 16 - - 0.0
21/08:30am 22.1 21.5 15.7 67 3.8 N 13 17 7 9 - - 0.0
21/08:00am 21.6 21.8 15.7 69 3.5 N 9 17 5 9 - - 0.0
21/07:30am 21.5 20.4 15.3 68 3.7 N 15 17 8 9 - - 0.0
21/07:00am 21.6 19.6 15.0 66 3.9 NW 19 24 10 13 - - 0.0
21/06:30am 21.3 19.4 15.2 68 3.6 WNW 19 30 10 16 - - 0.0
21/06:00am 20.7 17.1 15.3 71 3.2 NW 28 35 15 19 - - 0.0
21/05:30am 21.8 14.7 14.9 65 4.1 NW 46 59 25 32 - - 0.0
21/05:16am 22.3 18.8 14.4 61 4.6 WNW 26 50 14 27 - - 0.0
21/05:00am 22.1 21.1 14.5 62 4.5 W 13 30 7 16 - - 0.0
21/04:30am 22.7 22.1 14.5 60 4.8 SSW 11 24 6 13 - - 0.0
21/04:00am 22.7 21.2 14.3 59 4.9 WNW 15 32 8 17 - - 0.0
21/03:34am 22.8 17.9 14.4 59 4.9 NW 33 44 18 24 - - 0.0
21/03:30am 22.7 16.7 14.5 60 4.8 NW 39 48 21 26 - - 0.0
21/03:00am 22.2 13.9 14.8 63 4.4 NW 52 69 28 37 - - 0.0
21/02:52am 22.4 15.8 14.8 62 4.5 NW 43 65 23 35 - - 0.0
21/02:30am 21.5 15.8 15.1 67 3.8 NW 39 48 21 26 - - 0.0
21/02:13am 21.4 17.8 15.3 68 3.6 NW 28 50 15 27 - - 0.0
21/02:00am 21.9 20.5 15.5 67 3.8 NNE 17 30 9 16 - - 0.0
21/01:30am 21.2 17.7 15.5 70 3.4 NNE 28 35 15 19 - - 0.0
21/01:00am 21.8 19.9 15.2 66 3.9 N 19 28 10 15 - - 0.0
21/12:30am 21.6 19.8 15.4 68 3.7 NNE 19 30 10 16 - - 0.0
21/12:00am 20.3 20.0 16.5 79 2.3 NNE 13 15 7 8 - - 0.0
 
Date/Time
EDT
Temp
°C
App
Temp
°C
Dew
Point
°C
Rel
Hum
%
Delta-T
°C
Wind Press
QNH
hPa
Press
MSL
hPa
Rain since
9am
mm
Dir  Spd
km/h
Gust
km/h
Spd
kts
Gust
kts
20/11:30pm 20.0 19.8 16.8 82 1.9 N 13 17 7 9 - - 0.0
20/11:00pm 19.8 19.8 17.2 85 1.6 N 13 15 7 8 - - 0.0
20/10:30pm 19.6 18.4 17.0 85 1.6 NE 19 20 10 11 - - 0.0
20/10:00pm 19.7 19.5 16.7 83 1.8 NNE 13 17 7 9 - - 0.0
20/09:30pm 19.7 19.6 16.9 84 1.7 NNE 13 17 7 9 - - 0.0
20/09:00pm 19.5 19.4 16.9 85 1.6 NNE 13 19 7 10 - - 0.0
20/08:30pm 19.7 18.4 16.9 84 1.7 NE 19 22 10 12 - - 0.0
20/08:00pm 19.9 18.2 17.1 84 1.7 NNE 22 24 12 13 - - 0.0
20/07:30pm 19.9 17.3 16.9 83 1.8 NE 26 32 14 17 - - 0.0
20/07:00pm 19.9 16.6 16.9 83 1.8 NE 30 37 16 20 - - 0.0
20/06:30pm 20.0 16.0 16.8 82 1.9 NE 33 39 18 21 - - 0.0
20/06:00pm 20.2 16.3 16.4 79 2.3 NE 32 37 17 20 - - 0.0
20/05:30pm 20.6 16.0 16.0 75 2.8 NE 35 43 19 23 - - 0.0
20/05:00pm 20.3 15.4 16.3 78 2.4 NE 37 41 20 22 - - 0.0
20/04:30pm 19.9 14.9 16.0 78 2.3 NE 37 44 20 24 - - 0.0
20/04:00pm 20.9 15.4 15.7 72 3.1 NE 39 44 21 24 - - 0.0
20/03:30pm 21.2 16.2 16.0 72 3.1 NE 37 46 20 25 - - 0.0
20/03:00pm 21.2 16.2 16.2 73 3.0 NE 37 44 20 24 - - 0.0
20/02:30pm 21.3 16.0 16.3 73 3.0 NE 39 48 21 26 - - 0.0
20/02:00pm 21.1 15.5 15.4 70 3.4 NE 39 48 21 26 - - 0.0
20/01:30pm 21.5 16.1 16.0 71 3.3 NE 39 46 21 25 - - 0.0
20/01:00pm 21.2 15.5 15.1 68 3.6 NE 39 44 21 24 - - 0.0
20/12:30pm 21.6 16.5 15.7 69 3.5 NE 37 43 20 23 - - 0.0
20/12:00pm 21.5 16.4 15.8 70 3.4 NE 37 43 20 23 - - 0.0
20/11:30am 21.4 16.6 15.7 70 3.4 NE 35 41 19 22 - - 0.0
20/11:00am 21.4 17.1 15.9 71 3.3 NE 33 39 18 21 - - 0.0
20/10:30am 21.4 18.0 15.7 70 3.4 ENE 28 32 15 17 - - 0.0
20/10:00am 21.6 18.6 14.7 65 4.1 NE 24 28 13 15 - - 0.0
20/09:30am 20.9 17.9 13.8 64 4.1 NNE 22 26 12 14 - - 0.0
20/09:00am 20.7 18.0 13.4 63 4.2 N 20 26 11 14 - - 0.0
20/08:30am 20.2 17.2 12.7 62 4.2 N 20 30 11 16 - - 0.0
20/08:00am 19.4 16.8 13.3 68 3.5 N 19 24 10 13 - - 0.0
20/07:30am 18.9 15.5 13.7 72 3.0 N 24 30 13 16 - - 0.0
20/07:00am 18.9 15.9 13.7 72 3.0 N 22 26 12 14 - - 0.0
20/06:30am 18.0 15.9 13.7 76 2.4 N 17 20 9 11 - - 0.0
20/06:00am 17.6 15.0 13.3 76 2.4 NNW 19 24 10 13 - - 0.0
20/05:30am 17.3 15.2 13.6 79 2.1 NNW 17 20 9 11 - - 0.0
20/05:00am 16.6 15.6 13.3 81 1.8 NNW 11 13 6 7 - - 0.0
20/04:30am 16.9 16.0 13.6 81 1.9 NNW 11 15 6 8 - - 0.0
20/04:00am 17.0 15.8 14.1 83 1.7 NNW 13 15 7 8 - - 0.0
20/03:30am 16.7 16.2 13.8 83 1.6 NNW 9 11 5 6 - - 0.0
20/03:00am 16.5 16.2 13.2 81 1.8 NW 7 9 4 5 - - 0.0
20/02:30am 16.6 16.2 13.1 80 2.0 NW 7 11 4 6 - - 0.0
20/02:00am 17.0 16.7 13.3 79 2.1 NNW 7 11 4 6 - - 0.0
20/01:30am 17.0 16.6 12.9 77 2.3 NW 7 11 4 6 - - 0.0
20/01:00am 17.5 16.1 13.4 77 2.3 NNW 13 17 7 9 - - 0.0
20/12:30am 17.7 15.9 13.4 76 2.4 NNW 15 17 8 9 - - 0.0
20/12:00am 17.8 16.0 13.3 75 2.5 NNW 15 19 8 10 - - 0.0
 
Date/Time
EDT
Temp
°C
App
Temp
°C
Dew
Point
°C
Rel
Hum
%
Delta-T
°C
Wind Press
QNH
hPa
Press
MSL
hPa
Rain since
9am
mm
Dir  Spd
km/h
Gust
km/h
Spd
kts
Gust
kts
19/11:30pm 17.7 16.2 13.2 75 2.5 NNW 13 15 7 8 - - 0.0
19/11:00pm 17.3 15.7 12.8 75 2.5 NNW 13 17 7 9 - - 0.0
19/10:30pm 17.7 16.2 13.0 74 2.6 NNW 13 17 7 9 - - 0.0
19/10:00pm 17.8 16.2 12.7 72 2.8 NNW 13 15 7 8 - - 0.0
19/09:30pm 18.0 16.9 13.1 73 2.8 NNW 11 13 6 7 - - 0.0
19/09:00pm 18.4 17.0 13.3 72 2.9 N 13 17 7 9 - - 0.0
19/08:30pm 18.6 16.1 13.5 72 2.9 NNE 19 24 10 13 - - 0.0
19/08:00pm 18.6 15.9 13.5 72 2.9 NE 20 22 11 12 - - 0.0
19/07:30pm 18.6 15.9 13.0 70 3.2 NE 19 22 10 12 - - 0.0
19/07:00pm 19.0 16.4 13.2 69 3.3 NE 19 22 10 12 - - 0.0
19/06:30pm 19.3 16.7 13.3 68 3.4 NE 19 22 10 12 - - 0.0
19/06:00pm 20.0 17.5 13.5 66 3.7 NE 19 22 10 12 - - 0.0
19/05:30pm 20.1 17.1 12.6 62 4.2 NE 20 24 11 13 - - 0.0
19/05:00pm 20.3 17.1 12.0 59 4.6 NE 20 22 11 12 - - 0.0
19/04:30pm 20.7 17.7 12.7 60 4.5 NE 20 24 11 13 - - 0.0
19/04:00pm 21.0 17.7 12.7 59 4.7 ENE 22 26 12 14 - - 0.0
19/03:30pm 21.3 18.1 13.2 60 4.6 ENE 22 26 12 14 - - 0.0
19/03:00pm 21.3 18.1 13.2 60 4.6 ENE 22 26 12 14 - - 0.0
19/02:30pm 21.3 18.6 13.5 61 4.5 ENE 20 22 11 12 - - 0.0
19/02:00pm 21.5 18.7 13.2 59 4.8 NE 20 22 11 12 - - 0.0
19/01:30pm 20.8 18.3 13.5 63 4.2 ENE 19 20 10 11 - - 0.0
19/01:00pm 21.2 19.5 14.6 66 3.9 NE 17 20 9 11 - - 0.0
19/12:30pm 20.4 18.9 14.1 67 3.6 ENE 15 17 8 9 - - 0.0
19/12:00pm 19.7 18.4 13.6 68 3.5 ENE 13 19 7 10 - - 0.0
19/11:30am 19.3 18.1 13.9 71 3.1 E 13 17 7 9 - - 0.0
19/11:00am 19.7 18.9 14.1 70 3.2 E 11 15 6 8 - - 0.0
19/10:30am 19.5 19.0 13.7 69 3.3 ESE 9 13 5 7 - - 0.0
19/10:00am 19.7 18.5 14.1 70 3.2 E 13 15 7 8 - - 0.0
19/09:30am 20.0 18.9 14.4 70 3.3 ESE 13 17 7 9 - - 0.0
19/09:00am 19.4 18.0 13.3 68 3.5 ESE 13 13 7 7 - - 0.0
19/08:30am 19.0 18.1 12.7 67 3.5 E 9 11 5 6 - - 0.0
19/08:00am 17.8 17.3 12.0 69 3.2 N 6 7 3 4 - - 0.0
19/07:30am 16.8 17.3 11.5 71 2.9 CALM 0 0 0 0 - - 0.0
19/07:00am 15.7 15.6 12.1 79 2.0 NW 4 7 2 4 - - 0.0
19/06:30am 14.3 13.1 11.5 83 1.5 W 9 11 5 6 - - 0.0
19/06:00am 14.0 13.0 11.0 82 1.6 SW 7 9 4 5 - - 0.0
19/05:30am 14.8 14.1 11.9 83 1.6 SSW 7 9 4 5 - - 0.0
19/05:00am 14.6 14.0 11.7 83 1.6 WSW 6 7 3 4 - - 0.0
19/04:30am 14.4 14.6 11.7 84 1.4 WNW 2 7 1 4 - - 0.0
19/04:00am 13.9 13.2 11.4 85 1.3 WSW 6 9 3 5 - - 0.0
19/03:30am 13.9 13.1 11.2 84 1.4 WSW 6 9 3 5 - - 0.0
19/03:00am 14.0 13.6 11.0 82 1.6 W 4 9 2 5 - - 0.0
19/02:30am 14.2 12.4 11.0 81 1.7 W 11 13 6 7 - - 0.0
19/02:00am 14.6 13.2 11.0 79 1.9 WNW 9 13 5 7 - - 0.0
19/01:30am 14.9 13.6 11.1 78 2.0 WNW 9 11 5 6 - - 0.0
19/01:00am 15.6 14.3 11.2 75 2.4 WNW 9 11 5 6 - - 0.0
19/12:30am 16.9 15.1 12.0 73 2.7 ENE 13 15 7 8 - - 0.0
19/12:00am 17.2 15.5 12.3 73 2.7 ENE 13 19 7 10 - - 0.0
 
Date/Time
EDT
Temp
°C
App
Temp
°C
Dew
Point
°C
Rel
Hum
%
Delta-T
°C
Wind Press
QNH
hPa
Press
MSL
hPa
Rain since
9am
mm
Dir  Spd
km/h
Gust
km/h
Spd
kts
Gust
kts
18/11:30pm 17.3 15.1 12.0 71 2.9 ENE 15 17 8 9 - - 0.0
18/11:00pm 17.3 14.3 12.0 71 2.9 ENE 19 22 10 12 - - 0.0
18/10:30pm 17.4 14.9 12.3 72 2.8 E 17 20 9 11 - - 0.0
18/10:00pm 17.4 15.0 12.5 73 2.7 E 17 20 9 11 - - 0.0
18/09:30pm 17.7 14.8 12.8 73 2.7 E 20 24 11 13 - - 0.0
18/09:00pm 17.6 14.8 12.5 72 2.8 E 19 22 10 12 - - 0.0
18/08:30pm 17.7 14.9 12.6 72 2.8 E 19 20 10 11 - - 0.0
18/08:00pm 17.8 15.0 12.7 72 2.8 E 19 22 10 12 - - 0.0
18/07:30pm 17.9 14.9 12.4 70 3.1 SE 20 24 11 13 - - 0.0
18/07:00pm 18.2 15.0 12.0 67 3.4 SE 20 24 11 13 - - 0.0
18/06:30pm 18.4 14.9 12.2 67 3.4 ESE 22 24 12 13 - - 0.0
18/06:00pm 18.5 15.4 11.6 64 3.8 ESE 19 22 10 12 - - 0.0
18/05:30pm 18.9 15.7 11.9 64 3.9 SE 20 26 11 14 - - 0.0
18/05:00pm 18.9 15.6 11.5 62 4.1 SE 20 24 11 13 - - 0.0

Other Formats:

Comma delimited format used in spreadsheet applications
http://www.bom.gov.au/fwo/IDN60801/IDN60801.94749.axf

JavaScript Object Notation format (JSON) in row-major order
http://www.bom.gov.au/fwo/IDN60801/IDN60801.94749.json